Time;durP1;ratioP1;P1;durP2;ratioP2;P2;SDS_P1;SDS_P2;PMS_P1;PMS_P2;Temp;Humidity;BMP_temperature;BMP_pressure;BME280_temperature;BME280_humidity;BME280_pressure;Samples;Min_cycle;Max_cycle;Signal;HPM_P1;HPM_P2
2022/06/29 00:02:11;;;;;;;12.80;6.00;;;;;;;20.26;nan;95521.13;6217503;23;20008;-83
2022/06/29 00:04:36;;;;;;;10.07;6.53;;;;;;;20.48;nan;95548.91;6243214;23;20020;-83
2022/06/29 00:07:03;;;;;;;10.27;6.07;;;;;;;19.74;nan;95442.56;6216807;23;20010;-84
2022/06/29 00:09:28;;;;;;;6.85;6.05;;;;;;;20.71;nan;95577.13;6216646;23;20327;-84
2022/06/29 00:11:54;;;;;;;10.02;5.88;;;;;;;20.17;nan;95501.53;6216973;23;20062;-83
2022/06/29 00:14:19;;;;;;;10.18;5.80;;;;;;;20.46;nan;95578.06;6243930;23;20008;-83
2022/06/29 00:16:44;;;;;;;6.82;5.95;;;;;;;19.79;nan;95533.88;6216153;23;20012;-83
2022/06/29 00:19:10;;;;;;;7.75;6.65;;;;;;;20.11;nan;95569.38;6241728;23;20008;-83
2022/06/29 00:21:35;;;;;;;10.52;6.57;;;;;;;19.34;nan;95450.16;6242297;23;20073;-83
2022/06/29 00:24:01;;;;;;;8.43;5.57;;;;;;;20.19;nan;95580.09;6243856;23;20015;-83
2022/06/29 00:26:27;;;;;;;7.43;6.63;;;;;;;19.84;nan;95536.38;6217280;23;20031;-82
2022/06/29 00:28:52;;;;;;;11.48;6.03;;;;;;;19.03;nan;95417.34;6216977;23;20015;-83
2022/06/29 00:31:18;;;;;;;10.23;6.35;;;;;;;19.75;nan;95511.44;6243177;23;20411;-83
2022/06/29 00:33:43;;;;;;;9.27;6.15;;;;;;;19.12;nan;95469.97;6217120;23;20012;-83
2022/06/29 00:36:09;;;;;;;10.13;6.80;;;;;;;19.02;nan;95474.91;6216391;23;20095;-83
2022/06/29 00:38:35;;;;;;;11.13;6.43;;;;;;;19.35;nan;95489.38;6243402;23;20011;-83
2022/06/29 00:41:00;;;;;;;13.13;6.75;;;;;;;19.77;nan;95544.16;6241502;23;20013;-83
2022/06/29 00:43:26;;;;;;;10.77;7.57;;;;;;;19.94;nan;95549.47;6244170;23;20079;-83
2022/06/29 00:45:51;;;;;;;7.13;6.43;;;;;;;19.73;nan;95513.63;6217991;23;20463;-82
2022/06/29 00:48:17;;;;;;;8.52;6.88;;;;;;;20.04;nan;95567.97;6216048;23;20463;-83
2022/06/29 00:50:46;;;;;;;13.30;6.38;;;;;;;20.18;nan;95575.81;6216121;23;20423;-83
2022/06/29 00:53:15;;;;;;;8.18;6.90;;;;;;;19.66;nan;95483.75;6216134;23;20332;-83
2022/06/29 00:55:41;;;;;;;7.80;6.65;;;;;;;20.08;nan;95564.63;6216403;23;20004;-84
2022/06/29 00:58:09;;;;;;;14.05;7.00;;;;;;;19.39;nan;95457.25;6243888;23;20015;-83
2022/06/29 01:00:35;;;;;;;13.23;7.13;;;;;;;19.92;nan;95532.06;6243126;23;20324;-84
2022/06/29 01:03:01;;;;;;;15.05;6.80;;;;;;;19.88;nan;95536.53;6243750;23;20079;-84
2022/06/29 01:05:31;;;;;;;14.80;6.70;;;;;;;19.47;nan;95502.16;6215860;23;20008;-84
2022/06/29 01:08:00;;;;;;;7.50;6.80;;;;;;;19.46;nan;95465.59;6244925;23;20443;-84
2022/06/29 01:10:26;;;;;;;15.38;7.40;;;;;;;19.98;nan;95545.03;6244999;23;20004;-83
2022/06/29 01:12:52;;;;;;;13.00;7.15;;;;;;;19.34;nan;95439.38;6244342;22;20016;-83
2022/06/29 01:15:18;;;;;;;12.40;6.93;;;;;;;19.72;nan;95504.00;6217760;23;20004;-83
2022/06/29 01:17:44;;;;;;;12.00;7.13;;;;;;;20.09;nan;95555.44;6245269;23;20398;-83
2022/06/29 01:20:11;;;;;;;10.93;7.60;;;;;;;19.80;nan;95505.06;6217562;23;20074;-83
2022/06/29 01:22:37;;;;;;;12.77;7.75;;;;;;;19.91;nan;95527.81;6245247;23;20087;-83
2022/06/29 01:25:03;;;;;;;9.88;7.25;;;;;;;19.46;nan;95465.59;6217813;23;20517;-83
2022/06/29 01:27:29;;;;;;;12.35;7.47;;;;;;;19.00;nan;95418.78;6245484;23;20004;-83
2022/06/29 01:29:55;;;;;;;10.30;7.50;;;;;;;19.93;nan;95549.81;6245492;23;20008;-84
2022/06/29 01:32:21;;;;;;;12.43;8.00;;;;;;;19.93;nan;95569.44;6245332;23;20015;-84
2022/06/29 01:34:46;;;;;;;9.63;7.07;;;;;;;19.81;nan;95526.28;6218452;23;20004;-83
2022/06/29 01:37:12;;;;;;;11.93;8.23;;;;;;;19.54;nan;95480.94;6245492;23;20031;-84
2022/06/29 01:39:38;;;;;;;13.32;8.05;;;;;;;19.46;nan;95533.63;6218111;23;20011;-84
2022/06/29 01:42:05;;;;;;;10.98;8.73;;;;;;;19.53;nan;95554.72;6218016;23;20044;-84
2022/06/29 01:44:31;;;;;;;9.57;8.50;;;;;;;18.58;nan;95407.00;6247412;23;20336;-83
2022/06/29 01:46:56;;;;;;;21.67;8.70;;;;;;;18.83;nan;95438.44;6245563;23;20083;-83
2022/06/29 01:49:23;;;;;;;13.10;8.80;;;;;;;19.47;nan;95524.47;6218445;23;20069;-84
2022/06/29 01:51:49;;;;;;;14.65;7.95;;;;;;;19.50;nan;95552.66;6218487;23;20082;-84
2022/06/29 01:54:14;;;;;;;12.85;8.38;;;;;;;19.11;nan;95452.28;6244922;23;20024;-83
2022/06/29 01:56:40;;;;;;;14.55;8.20;;;;;;;19.21;nan;95454.63;6218696;23;20061;-83
2022/06/29 01:59:05;;;;;;;15.43;8.52;;;;;;;19.38;nan;95472.59;6245490;23;20097;-83
2022/06/29 02:01:30;;;;;;;12.40;8.48;;;;;;;19.20;nan;95455.72;6243420;23;20012;-84
2022/06/29 02:03:56;;;;;;;12.93;9.10;;;;;;;19.33;nan;95506.94;6218135;23;20520;-83
2022/06/29 02:06:23;;;;;;;10.02;8.13;;;;;;;19.48;nan;95484.94;6218206;23;20008;-84
2022/06/29 02:08:48;;;;;;;16.73;9.43;;;;;;;19.55;nan;95499.47;6217896;23;20008;-83
2022/06/29 02:11:14;;;;;;;10.20;8.75;;;;;;;19.39;nan;95476.06;6218243;23;20014;-84
2022/06/29 02:13:40;;;;;;;12.52;8.60;;;;;;;19.74;nan;95531.38;6219209;23;20020;-84
2022/06/29 02:16:05;;;;;;;12.25;8.88;;;;;;;19.08;nan;95455.59;6219123;23;20012;-84
2022/06/29 02:18:31;;;;;;;13.77;9.63;;;;;;;19.67;nan;95527.59;6245323;23;20347;-84
2022/06/29 02:20:57;;;;;;;11.05;9.02;;;;;;;19.32;nan;95473.09;6217888;23;20008;-83
2022/06/29 02:23:22;;;;;;;11.90;8.73;;;;;;;19.37;nan;95475.63;6217777;23;20446;-83
2022/06/29 02:25:48;;;;;;;11.68;9.35;;;;;;;19.13;nan;95436.63;6217099;23;20020;-83
2022/06/29 02:28:14;;;;;;;13.35;9.75;;;;;;;19.34;nan;95471.66;6217399;23;20095;-83
2022/06/29 02:36:07;;;;;;;11.70;9.43;;;;;;;19.47;nan;95507.56;6245102;23;20089;-83
2022/06/29 02:38:34;;;;;;;17.40;9.73;;;;;;;19.19;nan;95446.09;6217834;23;20012;-83
2022/06/29 02:40:59;;;;;;;15.60;9.50;;;;;;;19.42;nan;95486.19;6244683;23;20097;-83
2022/06/29 02:43:26;;;;;;;11.35;8.88;;;;;;;19.57;nan;95497.25;6245189;23;20020;-83
2022/06/29 02:45:52;;;;;;;14.60;8.93;;;;;;;19.52;nan;95483.19;6244154;23;20495;-83
2022/06/29 02:48:18;;;;;;;14.50;9.32;;;;;;;19.11;nan;95422.69;6218257;23;20016;-83
2022/06/29 02:50:43;;;;;;;23.90;9.30;;;;;;;19.04;nan;95402.81;6244615;23;20051;-83
2022/06/29 02:53:08;;;;;;;23.88;10.02;;;;;;;19.71;nan;95504.31;6217552;23;20016;-83
2022/06/29 02:55:34;;;;;;;15.73;10.55;;;;;;;19.77;nan;95503.78;6244358;23;20428;-83
2022/06/29 02:57:59;;;;;;;17.92;9.90;;;;;;;19.35;nan;95449.03;6244418;23;20031;-84
2022/06/29 03:00:25;;;;;;;20.38;9.88;;;;;;;19.49;nan;95479.22;6244849;23;20003;-84
2022/06/29 03:02:50;;;;;;;22.48;10.95;;;;;;;19.37;nan;95451.41;6217917;23;20016;-83
2022/06/29 03:05:16;;;;;;;14.43;10.80;;;;;;;18.78;nan;95357.19;6243995;23;20059;-83
2022/06/29 03:07:41;;;;;;;19.38;11.43;;;;;;;19.05;nan;95460.84;6242175;23;20012;-82
2022/06/29 03:10:07;;;;;;;16.40;10.52;;;;;;;18.59;nan;95383.63;6244976;23;20008;-83
2022/06/29 03:12:33;;;;;;;18.85;10.20;;;;;;;18.93;nan;95420.38;6244468;23;20070;-83
2022/06/29 03:14:59;;;;;;;12.55;9.15;;;;;;;19.41;nan;95479.22;6244152;23;20066;-83
2022/06/29 03:17:24;;;;;;;12.43;9.75;;;;;;;19.39;nan;95482.22;6217789;23;20020;-83
2022/06/29 03:19:49;;;;;;;13.20;9.18;;;;;;;19.62;nan;95513.19;6218000;23;20019;-83
2022/06/29 03:22:15;;;;;;;26.17;12.20;;;;;;;19.03;nan;95455.78;6217684;23;20099;-82
2022/06/29 03:24:40;;;;;;;19.67;12.60;;;;;;;19.41;nan;95504.22;6244235;23;20008;-83
2022/06/29 03:27:06;;;;;;;15.98;12.80;;;;;;;18.81;nan;95443.31;6217731;23;20034;-83
2022/06/29 03:29:31;;;;;;;22.95;13.30;;;;;;;19.16;nan;95478.97;6243937;23;20031;-83
2022/06/29 03:31:57;;;;;;;17.13;11.38;;;;;;;18.51;nan;95406.69;6217055;23;20015;-83
2022/06/29 03:34:22;;;;;;;17.02;11.45;;;;;;;19.44;nan;95511.66;6217320;23;20087;-83
2022/06/29 03:36:48;;;;;;;18.52;11.63;;;;;;;18.75;nan;95408.88;6217122;23;20004;-83
2022/06/29 03:39:14;;;;;;;25.48;11.98;;;;;;;19.04;nan;95462.72;6216764;23;20023;-83
2022/06/29 03:41:39;;;;;;;24.27;12.18;;;;;;;18.86;nan;95450.41;6217409;23;20086;-82
2022/06/29 03:44:04;;;;;;;18.92;10.57;;;;;;;19.08;nan;95465.56;6216580;23;20094;-82
2022/06/29 03:46:30;;;;;;;21.33;12.20;;;;;;;19.35;nan;95510.09;6216303;23;20019;-82
2022/06/29 03:48:55;;;;;;;23.80;12.27;;;;;;;18.86;nan;95455.78;6244089;23;20370;-82
2022/06/29 03:51:21;;;;;;;20.40;13.85;;;;;;;18.82;nan;95461.03;6243286;23;20083;-83
2022/06/29 03:53:46;;;;;;;18.02;12.80;;;;;;;18.19;nan;95377.63;6244173;23;20347;-83
2022/06/29 03:56:12;;;;;;;20.52;13.38;;;;;;;18.72;nan;95460.56;6216387;23;20004;-82
2022/06/29 03:58:38;;;;;;;23.40;14.38;;;;;;;18.31;nan;95408.09;6216476;23;20043;-83
2022/06/29 04:01:04;;;;;;;21.75;14.07;;;;;;;18.18;nan;95376.84;6216606;23;20050;-83
2022/06/29 04:03:29;;;;;;;25.67;13.95;;;;;;;18.42;nan;95430.84;6244440;23;20004;-83
2022/06/29 04:05:55;;;;;;;22.27;15.80;;;;;;;18.56;nan;95398.47;6217559;23;19996;-83
2022/06/29 04:08:21;;;;;;;25.70;16.42;;;;;;;18.79;nan;95445.53;6216075;23;20325;-83
2022/06/29 04:10:46;;;;;;;23.65;16.65;;;;;;;18.96;nan;95433.19;6241565;23;20004;-83
2022/06/29 04:13:11;;;;;;;24.13;16.73;;;;;;;19.35;nan;95486.69;6215408;23;20020;-83
2022/06/29 04:15:37;;;;;;;22.83;16.55;;;;;;;19.34;nan;95482.41;6216635;23;20078;-83
2022/06/29 04:18:03;;;;;;;22.83;15.52;;;;;;;18.87;nan;95409.00;6215450;23;20066;-83
2022/06/29 04:23:12;;;;;;;25.30;15.32;;;;;;;18.95;nan;95408.19;6240776;23;20256;-84
2022/06/29 04:25:37;;;;;;;19.38;15.90;;;;;;;18.99;nan;95401.09;6242884;22;20016;-84
2022/06/29 04:28:06;;;;;;;22.27;15.73;;;;;;;18.67;nan;95329.91;6241204;23;20075;-83
2022/06/29 04:30:32;;;;;;;20.17;15.68;;;;;;;19.36;nan;95425.63;6215133;23;20008;-83
2022/06/29 04:32:58;;;;;;;20.42;13.90;;;;;;;19.62;nan;95454.00;6244276;23;20354;-83
2022/06/29 04:35:23;;;;;;;25.65;12.80;;;;;;;19.62;nan;95455.91;6216163;23;20032;-84
2022/06/29 04:37:48;;;;;;;34.53;12.90;;;;;;;18.79;nan;95313.09;6212075;23;20004;-83
2022/06/29 04:40:14;;;;;;;19.05;12.15;;;;;;;19.48;nan;95420.38;6213763;23;20106;-83
2022/06/29 04:42:39;;;;;;;21.35;12.57;;;;;;;19.68;nan;95451.16;6214873;23;20004;-83
2022/06/29 04:45:05;;;;;;;19.77;12.07;;;;;;;19.72;nan;95450.16;6209889;23;20004;-83
2022/06/29 04:47:31;;;;;;;27.35;13.43;;;;;;;19.93;nan;95474.44;6235892;23;20073;-83
2022/06/29 04:49:56;;;;;;;17.90;11.90;;;;;;;19.66;nan;95419.19;6240885;22;20008;-83
2022/06/29 04:52:24;;;;;;;21.77;12.57;;;;;;;19.03;nan;95321.38;6241970;23;20045;-82
2022/06/29 04:54:49;;;;;;;26.83;14.25;;;;;;;19.39;nan;95404.25;6211430;23;20004;-82
2022/06/29 04:57:15;;;;;;;27.83;13.85;;;;;;;19.68;nan;95451.94;6239281;23;20106;-84
2022/06/29 04:59:40;;;;;;;22.10;13.43;;;;;;;20.00;nan;95472.00;6238361;23;20398;-84
2022/06/29 05:02:09;;;;;;;27.92;13.57;;;;;;;19.63;nan;95444.81;6239040;23;20153;-85
2022/06/29 05:04:34;;;;;;;26.50;14.52;;;;;;;19.70;nan;95462.34;6208983;23;20039;-85
2022/06/29 05:07:00;;;;;;;21.10;13.10;;;;;;;19.74;nan;95468.69;6202078;23;20012;-84
2022/06/29 05:09:25;;;;;;;28.52;13.40;;;;;;;18.74;nan;95350.88;6208009;23;20019;-84
2022/06/29 05:11:50;;;;;;;24.20;13.38;;;;;;;19.04;nan;95378.63;6208805;23;20021;-84
2022/06/29 05:14:16;;;;;;;26.85;13.68;;;;;;;19.67;nan;95458.44;6209215;23;20100;-84
2022/06/29 05:16:41;;;;;;;29.77;13.82;;;;;;;19.15;nan;95356.41;6211733;23;20015;-84
2022/06/29 05:19:07;;;;;;;22.02;14.45;;;;;;;19.78;nan;95456.94;6214095;23;20012;-84
2022/06/29 05:21:32;;;;;;;26.65;14.30;;;;;;;19.51;nan;95425.13;6237303;23;20091;-84
2022/06/29 05:23:58;;;;;;;24.50;15.15;;;;;;;18.95;nan;95334.84;6239448;23;20019;-84
2022/06/29 05:26:24;;;;;;;22.02;15.25;;;;;;;19.77;nan;95441.13;6212754;23;20132;-84
2022/06/29 05:28:51;;;;;;;21.95;13.80;;;;;;;19.24;nan;95343.72;6239452;23;20309;-84
2022/06/29 05:31:19;;;;;;;27.40;15.23;;;;;;;20.20;nan;95492.81;6234969;23;20031;-84
2022/06/29 05:33:45;;;;;;;25.63;16.15;;;;;;;19.55;nan;95415.28;6207965;23;20016;-84
2022/06/29 05:36:11;;;;;;;25.25;15.63;;;;;;;19.80;nan;95435.88;6210569;23;20015;-84
2022/06/29 05:38:37;;;;;;;32.03;16.02;;;;;;;19.74;nan;95415.66;6209271;23;20070;-84
2022/06/29 05:41:04;;;;;;;26.60;16.45;;;;;;;19.40;nan;95413.88;6205839;23;20016;-84
2022/06/29 05:43:30;;;;;;;22.77;16.60;;;;;;;19.64;nan;95461.75;6230721;23;20012;-85
2022/06/29 05:45:57;;;;;;;23.45;15.68;;;;;;;19.25;nan;95403.66;6206522;23;20020;-84
2022/06/29 05:48:22;;;;;;;25.33;16.33;;;;;;;20.20;nan;95508.97;6203738;23;20008;-84
2022/06/29 05:50:48;;;;;;;38.30;16.42;;;;;;;20.30;nan;95503.19;6203593;23;20065;-84
2022/06/29 05:53:14;;;;;;;22.42;15.63;;;;;;;20.04;nan;95465.66;6205860;23;20405;-84
2022/06/29 05:55:40;;;;;;;22.75;15.77;;;;;;;18.75;nan;95266.50;6228463;23;20031;-84
2022/06/29 05:58:06;;;;;;;35.15;17.48;;;;;;;19.54;nan;95376.03;6234139;22;20063;-84
2022/06/29 06:00:32;;;;;;;23.50;16.38;;;;;;;19.93;nan;95458.28;6205009;23;20016;-84
2022/06/29 06:02:57;;;;;;;28.63;16.83;;;;;;;19.46;nan;95358.78;6234122;23;20036;-84
2022/06/29 06:05:23;;;;;;;24.35;17.60;;;;;;;20.06;nan;95469.94;6199733;23;20020;-84
2022/06/29 06:07:49;;;;;;;28.40;18.48;;;;;;;19.03;nan;95332.13;6209619;23;20004;-84
2022/06/29 06:10:14;;;;;;;22.00;17.02;;;;;;;19.30;nan;95381.22;6204712;23;20344;-84
2022/06/29 06:12:39;;;;;;;31.75;18.60;;;;;;;20.20;nan;95527.03;6205170;23;20028;-85
2022/06/29 06:15:06;;;;;;;35.38;18.33;;;;;;;19.92;nan;95443.25;6202020;23;20022;-84
2022/06/29 06:17:32;;;;;;;26.42;18.30;;;;;;;19.75;nan;95417.25;6204617;23;20059;-85
2022/06/29 06:19:58;;;;;;;29.38;17.40;;;;;;;18.27;nan;95188.94;6211188;23;20008;-84
2022/06/29 06:22:24;;;;;;;27.33;17.85;;;;;;;20.52;nan;95515.59;6215686;23;20012;-84
2022/06/29 06:24:49;;;;;;;33.35;17.95;;;;;;;19.80;nan;95405.50;6237526;23;20058;-84
2022/06/29 06:27:15;;;;;;;29.15;16.83;;;;;;;19.62;nan;95373.28;6201227;23;20026;-84
2022/06/29 06:29:41;;;;;;;28.13;16.45;;;;;;;19.93;nan;95417.91;6228434;23;20328;-85
2022/06/29 06:32:07;;;;;;;27.30;16.27;;;;;;;20.07;nan;95418.44;6225796;23;20011;-82
2022/06/29 06:34:32;;;;;;;22.75;15.57;;;;;;;20.63;nan;95475.56;6203375;23;20055;-83
2022/06/29 06:36:59;;;;;;;25.52;14.75;;;;;;;20.56;nan;95430.31;6204442;23;20014;-83
2022/06/29 06:39:25;;;;;;;25.98;14.93;;;;;;;20.50;nan;95420.84;6231104;23;20007;-84
2022/06/29 06:41:50;;;;;;;22.38;14.65;;;;;;;20.71;nan;95472.03;6232147;23;20034;-83
2022/06/29 06:44:16;;;;;;;27.52;14.18;;;;;;;20.83;nan;95442.41;6207642;23;20115;-84
2022/06/29 06:46:41;;;;;;;25.10;14.20;;;;;;;20.64;nan;95437.53;6232603;23;20097;-84
2022/06/29 06:49:08;;;;;;;27.35;15.15;;;;;;;20.92;nan;95478.16;6233931;23;20014;-85
2022/06/29 06:51:33;;;;;;;25.05;14.45;;;;;;;20.71;nan;95448.56;6234929;22;20008;-84
2022/06/29 06:53:59;;;;;;;26.90;13.45;;;;;;;20.97;nan;95488.75;6206341;23;20066;-84
2022/06/29 06:56:25;;;;;;;27.73;14.02;;;;;;;20.38;nan;95383.84;6206171;23;20332;-84
2022/06/29 06:58:51;;;;;;;30.70;14.18;;;;;;;20.84;nan;95453.97;6211392;23;20012;-84
2022/06/29 07:01:16;;;;;;;23.55;13.77;;;;;;;20.48;nan;95374.59;6209539;23;20047;-84
2022/06/29 07:03:41;;;;;;;24.73;12.80;;;;;;;20.97;nan;95439.44;6233874;22;20462;-83
2022/06/29 07:06:09;;;;;;;20.10;12.32;;;;;;;20.66;nan;95384.09;6207182;23;20023;-83
2022/06/29 07:08:36;;;;;;;19.50;10.88;;;;;;;21.23;nan;95436.47;6206030;23;20012;-83
2022/06/29 07:11:03;;;;;;;28.00;12.32;;;;;;;21.24;nan;95425.38;6209175;23;20011;-84
2022/06/29 07:13:28;;;;;;;28.40;12.73;;;;;;;21.34;nan;95449.22;6229471;23;20503;-83
2022/06/29 07:15:54;;;;;;;28.70;11.80;;;;;;;21.22;nan;95449.19;6202227;23;20224;-84
2022/06/29 07:18:20;;;;;;;20.92;11.90;;;;;;;21.41;nan;95472.94;6203904;23;20008;-84
2022/06/29 07:20:45;;;;;;;15.05;11.55;;;;;;;20.90;nan;95380.69;6207607;23;20138;-84
2022/06/29 07:23:11;;;;;;;19.10;10.55;;;;;;;20.67;nan;95320.97;6230889;23;20035;-83
2022/06/29 07:25:37;;;;;;;24.85;11.50;;;;;;;20.96;nan;95356.97;6201311;23;20015;-83
2022/06/29 07:28:02;;;;;;;21.48;11.38;;;;;;;21.77;nan;95456.00;6201718;23;20099;-83
2022/06/29 07:30:28;;;;;;;13.82;10.65;;;;;;;21.84;nan;95457.00;6202415;23;20019;-84
2022/06/29 07:32:53;;;;;;;18.60;11.07;;;;;;;21.40;nan;95393.13;6200331;23;20019;-83
2022/06/29 07:35:19;;;;;;;15.00;9.25;;;;;;;21.34;nan;95368.28;6201417;23;20012;-84
2022/06/29 07:37:44;;;;;;;19.15;9.55;;;;;;;21.20;nan;95332.78;6200745;23;20007;-83
2022/06/29 07:40:11;;;;;;;16.70;10.35;;;;;;;21.79;nan;95432.16;6201674;23;20012;-83
2022/06/29 07:42:36;;;;;;;19.67;9.02;;;;;;;21.83;nan;95433.81;6204067;23;20402;-83
2022/06/29 07:45:06;;;;;;;20.20;9.02;;;;;;;22.01;nan;95437.13;6177884;23;20073;-84
2022/06/29 07:47:32;;;;;;;16.98;9.85;;;;;;;22.00;nan;95405.03;6229859;23;20008;-83
2022/06/29 07:50:01;;;;;;;16.00;9.45;;;;;;;21.46;nan;95311.63;6233389;23;20087;-84
2022/06/29 07:52:32;;;;;;;23.27;10.23;;;;;;;22.23;nan;95417.72;6204179;23;20078;-84
2022/06/29 07:54:58;;;;;;;25.55;10.77;;;;;;;20.16;nan;95125.69;6205966;23;20591;-83
2022/06/29 07:57:24;;;;;;;22.92;10.80;;;;;;;22.07;nan;95410.66;6202828;23;20099;-84
2022/06/29 07:59:49;;;;;;;18.70;11.85;;;;;;;20.93;nan;95228.25;6231647;23;20462;-84
2022/06/29 08:02:15;;;;;;;19.73;11.35;;;;;;;20.82;nan;95200.97;6205325;23;20203;-84
2022/06/29 08:04:41;;;;;;;22.80;11.45;;;;;;;20.16;nan;95096.06;6208746;23;20475;-84
2022/06/29 08:07:06;;;;;;;22.63;10.80;;;;;;;22.15;nan;95436.75;6208739;23;20548;-84
2022/06/29 08:09:32;;;;;;;18.65;10.45;;;;;;;22.35;nan;95445.84;6231250;23;20035;-84
2022/06/29 08:12:02;;;;;;;25.13;10.38;;;;;;;18.67;nan;94886.69;6234853;22;20083;-84
2022/06/29 08:14:28;;;;;;;14.52;9.52;;;;;;;20.17;nan;95088.78;6174035;23;20032;-84
2022/06/29 08:16:53;;;;;;;15.63;10.80;;;;;;;22.10;nan;95358.66;6176210;23;20102;-84
2022/06/29 08:19:19;;;;;;;21.98;10.27;;;;;;;21.44;nan;95245.63;6204232;23;20047;-84
2022/06/29 08:21:45;;;;;;;16.67;11.27;;;;;;;22.82;nan;95429.81;6202803;23;20009;-84
2022/06/29 08:24:10;;;;;;;16.40;10.55;;;;;;;22.79;nan;95414.28;6180939;23;20291;-84
2022/06/29 08:26:36;;;;;;;15.57;8.93;;;;;;;21.84;nan;95272.63;6205316;23;20023;-85
2022/06/29 08:29:02;;;;;;;16.35;9.75;;;;;;;23.24;nan;95476.16;6181247;23;20035;-84
2022/06/29 08:31:28;;;;;;;20.38;9.25;;;;;;;23.38;nan;95454.88;6183029;23;20019;-84
2022/06/29 08:33:53;;;;;;;21.83;10.20;;;;;;;22.50;nan;95320.81;6181128;23;20112;-84
2022/06/29 08:36:19;;;;;;;18.50;9.30;;;;;;;23.55;nan;95448.38;6180916;23;20001;-84
2022/06/29 08:38:44;;;;;;;16.05;9.15;;;;;;;22.85;nan;95338.00;6205238;23;20004;-84
2022/06/29 08:41:12;;;;;;;19.40;9.80;;;;;;;22.77;nan;95330.03;6173841;23;20008;-84
2022/06/29 08:43:37;;;;;;;17.05;9.63;;;;;;;22.20;nan;95215.03;6179815;23;20019;-84
2022/06/29 08:46:03;;;;;;;18.67;10.52;;;;;;;23.53;nan;95402.69;6204907;23;20436;-84
2022/06/29 08:48:30;;;;;;;23.33;9.50;;;;;;;23.01;nan;95305.53;6179848;23;20253;-84
2022/06/29 08:51:06;;;;;;;17.23;8.77;;;;;;;23.67;nan;95389.50;6181773;23;20154;-83
2022/06/29 08:53:32;;;;;;;13.27;8.80;;;;;;;23.84;nan;95427.03;6176185;23;20016;-84
2022/06/29 08:56:00;;;;;;;12.32;7.13;;;;;;;23.73;nan;95376.47;6172972;23;20061;-85
2022/06/29 08:58:26;;;;;;;18.40;8.65;;;;;;;24.17;nan;95431.28;6204036;23;20123;-84
2022/06/29 09:00:52;;;;;;;21.88;8.38;;;;;;;24.27;nan;95440.78;6180040;23;20013;-84
2022/06/29 09:03:19;;;;;;;18.15;9.18;;;;;;;24.21;nan;95429.44;6206186;23;20019;-84
2022/06/29 09:05:48;;;;;;;13.40;7.53;;;;;;;24.42;nan;95443.44;6176476;23;20012;-84
2022/06/29 09:08:14;;;;;;;12.88;7.38;;;;;;;24.40;nan;95434.91;6177400;23;20102;-84
2022/06/29 09:10:39;;;;;;;22.33;9.32;;;;;;;23.01;nan;95206.25;6175524;23;20188;-84
2022/06/29 09:13:05;;;;;;;11.02;7.95;;;;;;;24.33;nan;95393.31;6216045;23;20123;-84
2022/06/29 09:15:33;;;;;;;11.82;6.15;;;;;;;23.69;nan;95283.56;6230964;23;20062;-84
2022/06/29 09:17:59;;;;;;;12.63;6.35;;;;;;;24.54;nan;95421.66;6207654;23;20597;-85
2022/06/29 09:20:37;;;;;;;10.98;5.93;;;;;;;23.87;nan;95336.19;6209828;23;20012;-84
2022/06/29 09:23:03;;;;;;;8.27;5.88;;;;;;;24.59;nan;95429.47;6212764;23;20019;-85
2022/06/29 09:25:31;;;;;;;12.50;5.90;;;;;;;24.53;nan;95400.31;6215517;23;20463;-85
2022/06/29 09:27:57;;;;;;;10.13;6.07;;;;;;;24.73;nan;95428.97;6214002;23;20008;-84
2022/06/29 09:30:28;;;;;;;7.72;5.07;;;;;;;24.55;nan;95400.75;6242188;23;20551;-85
2022/06/29 09:32:59;;;;;;;10.32;5.32;;;;;;;24.60;nan;95420.22;6210343;23;20312;-85
2022/06/29 09:35:24;;;;;;;12.75;5.60;;;;;;;24.57;nan;95395.72;6210193;23;20004;-84
2022/06/29 09:37:49;;;;;;;15.40;5.53;;;;;;;24.89;nan;95410.69;6210094;23;20000;-85
2022/06/29 09:40:21;;;;;;;10.63;5.68;;;;;;;24.86;nan;95388.94;6212900;23;20066;-84
2022/06/29 09:42:47;;;;;;;12.30;5.32;;;;;;;24.51;nan;95334.81;6211054;23;20394;-84
2022/06/29 09:45:12;;;;;;;7.57;5.55;;;;;;;24.64;nan;95330.81;6209864;23;20012;-83
2022/06/29 09:47:39;;;;;;;10.02;6.30;;;;;;;25.15;nan;95353.06;6210882;23;20134;-86
2022/06/29 09:50:08;;;;;;;14.65;5.40;;;;;;;26.23;nan;95399.75;6234318;23;20012;-83
2022/06/29 09:52:37;;;;;;;11.00;5.05;;;;;;;27.31;nan;95393.28;6212086;23;20198;-84
2022/06/29 09:55:06;;;;;;;11.43;5.32;;;;;;;28.37;nan;95383.19;6238539;23;20000;-83
2022/06/29 09:57:34;;;;;;;9.60;4.97;;;;;;;28.89;nan;95298.41;6211474;23;20008;-83
2022/06/29 10:02:49;;;;;;;9.50;4.63;;;;;;;31.35;nan;95409.66;6239789;23;20411;-83
2022/06/29 10:05:18;;;;;;;4.63;3.65;;;;;;;31.88;nan;95398.31;6209046;23;20008;-83
2022/06/29 10:07:46;;;;;;;9.65;3.83;;;;;;;32.90;nan;95395.69;6233103;23;20081;-84
2022/06/29 10:10:14;;;;;;;5.55;3.42;;;;;;;33.05;nan;95325.63;6205081;23;20035;-84
2022/06/29 10:16:15;;;;;;;12.98;4.30;;;;;;;34.32;nan;95349.50;6236015;23;20027;-84
2022/06/29 10:18:59;;;;;;;10.57;3.63;;;;;;;34.90;nan;95399.50;6201945;23;20514;-83
2022/06/29 10:21:30;;;;;;;6.40;4.00;;;;;;;34.77;nan;95400.16;6209350;23;20016;-84
2022/06/29 10:23:57;;;;;;;7.70;3.40;;;;;;;34.77;nan;95325.00;6208099;23;20024;-84
2022/06/29 10:26:27;;;;;;;6.70;3.20;;;;;;;35.33;nan;95391.09;6203273;23;20011;-83
2022/06/29 10:28:55;;;;;;;7.22;3.40;;;;;;;34.95;nan;95393.50;6209953;23;20043;-83
2022/06/29 10:31:56;;;;;;;10.25;3.40;;;;;;;35.67;nan;95396.25;6236093;23;20325;-83
2022/06/29 10:34:28;;;;;;;4.63;3.60;;;;;;;35.57;nan;95387.78;6209911;23;20008;-83
2022/06/29 10:37:06;;;;;;;8.48;3.40;;;;;;;35.89;nan;95386.25;6209494;23;20451;-83
2022/06/29 10:39:48;;;;;;;8.15;3.83;;;;;;;35.92;nan;95383.44;6207665;23;20470;-84
2022/06/29 10:45:49;;;;;;;8.15;3.53;;;;;;;35.81;nan;95377.38;6236728;23;20046;-84
2022/06/29 10:48:16;;;;;;;8.80;3.40;;;;;;;35.74;nan;95380.31;6160859;23;20158;-83
2022/06/29 10:50:45;;;;;;;7.90;3.47;;;;;;;35.45;nan;95308.50;6205126;23;20592;-83
2022/06/29 10:53:16;;;;;;;10.05;3.17;;;;;;;36.03;nan;95368.56;6230945;23;20355;-84
2022/06/29 10:55:48;;;;;;;8.63;3.22;;;;;;;36.07;nan;95366.50;6206411;23;20015;-84
2022/06/29 10:58:13;;;;;;;9.38;3.30;;;;;;;36.10;nan;95369.16;6208226;23;20138;-84
2022/06/29 11:00:44;;;;;;;5.60;3.25;;;;;;;35.87;nan;95350.81;6205590;23;20035;-83
2022/06/29 11:03:22;;;;;;;6.70;3.40;;;;;;;36.30;nan;95366.31;6204228;23;20370;-83
2022/06/29 11:14:06;;;;;;;8.25;3.22;;;;;;;36.14;nan;95361.56;6231127;23;20031;-83
2022/06/29 11:16:35;;;;;;;5.55;3.30;;;;;;;36.08;nan;95360.53;6208177;23;20047;-83
2022/06/29 11:19:01;;;;;;;6.95;2.85;;;;;;;35.71;nan;95306.69;6206553;23;20039;-84
2022/06/29 11:21:29;;;;;;;8.43;3.13;;;;;;;35.66;nan;95274.09;6206476;23;20008;-84
2022/06/29 11:23:57;;;;;;;7.63;3.15;;;;;;;36.39;nan;95349.09;6206915;23;20040;-84
2022/06/29 11:26:24;;;;;;;5.63;3.30;;;;;;;35.65;nan;95271.75;6232872;23;20447;-84
2022/06/29 11:28:49;;;;;;;6.95;2.95;;;;;;;35.66;nan;95252.00;6203998;23;20059;-84
2022/06/29 11:31:17;;;;;;;6.90;2.80;;;;;;;35.81;nan;95335.22;6205165;23;20016;-84
2022/06/29 11:33:44;;;;;;;9.75;3.05;;;;;;;35.81;nan;95285.56;6205372;23;20004;-84
2022/06/29 11:36:17;;;;;;;9.80;3.10;;;;;;;35.62;nan;95265.13;6204877;23;20281;-84
2022/06/29 11:38:49;;;;;;;5.45;3.20;;;;;;;36.54;nan;95320.66;6205223;23;20339;-84
2022/06/29 11:53:03;;;;;;;;;;;;;;;;;;;;;
2022/06/29 11:58:17;;;;;;;3.55;2.40;;;;;;;36.83;nan;95306.03;6272372;22;20047;-93
2022/06/29 12:01:15;;;;;;;8.63;3.53;;;;;;;35.64;nan;95184.69;6214552;23;20190;-93
2022/06/29 12:04:39;;;;;;;6.45;3.10;;;;;;;36.48;nan;95310.56;6217027;22;20004;-93
2022/06/29 12:07:47;;;;;;;12.27;2.70;;;;;;;37.03;nan;95306.59;6217824;22;20024;-93
2022/06/29 12:10:16;;;;;;;4.95;2.75;;;;;;;35.12;nan;95075.38;6213261;23;20229;-93
2022/06/29 12:13:29;;;;;;;5.05;2.53;;;;;;;33.03;nan;94799.78;6215168;23;20005;-93
2022/06/29 12:18:28;;;;;;;5.07;2.60;;;;;;;33.65;nan;94810.47;6305144;22;20026;-93
2022/06/29 12:20:58;;;;;;;14.10;4.78;;;;;;;36.90;nan;95297.53;6307356;22;20362;-93
2022/06/29 12:23:49;;;;;;;8.30;2.35;;;;;;;35.18;nan;94993.69;6278024;22;20007;-93
2022/06/29 12:26:21;;;;;;;5.40;2.42;;;;;;;34.03;nan;94801.66;6274193;22;20091;-93